Aérodrome :
LOGIN :

S'inscrire | Disclaimer

   EN    FR    IT 

 










Légende :    VFR   VFR Marginal   IFR   IFR Intensif   IFR Très Intensif
Visi : 
Plafond : 
>= 8 km
>= 3000ft
5 à 8 km
1000 à 3000 ft
1500m à 5 km
500 à 1000 ft
800 à 1500m
200 à 500 ft
< 800m
< 200 ft
Symboles :   Orages  Brouillard  Fortes neiges  Fortes précipitations  Vent > 20 kt
SIGMETs :   Divers  Orages  Givrage  Turbulence  Onde Orograph.  Cendres Volcan.







- Altitude de l'aérodrome : 39 ft
- Code IATA : ANR


EBAW - Anvers / Antwerpen Deurne

DERNIER METAR :
  • 221350Z 20008KT 2400 -SN BR SCT007 BKN008 M00/M02 Q1003 R88/491094 BECMG 4000 BR

METARs EXPIRÉS :
  • 221320Z 20009KT 170V230 2300 -SN BR SCT007 BKN008 M00/M02 Q1003 R88/491094 BECMG 3500 BR
  • 221250Z 19009KT 2200 -SN BR BKN008 M00/M02 Q1004 R88/491094 BECMG 3500 BR
  • 221220Z 19007KT 160V240 2000 -SN BKN006 M00/M02 Q1004 R88/491094 BECMG FM1330 3500 BR
  • 221150Z 18008KT 1200 R11/1300D R29/1300N -SN SCT009 BKN012 M01/M02 Q1004 R88/491094 TEMPO 0900 SN BECMG BKN006
  • 221120Z 18010KT 1600 -SN SCT009 BKN012 M01/M02 Q1005 R88/491094 TEMPO 1000 SN BECMG BKN006

TAF TAF EBAW
Valide du 22 à 12h jusqu'au 22 à 21h UTC


221115Z 2212/2221 19010KT 6000 BKN009
TEMPO 2212/2215 3000 -SN BKN006
PROB40
TEMPO 2212/2215 1200 SN BKN002
Pas de NOTAMs connus pour ce terrain.



MET'MAP, la Météo Aéronautique d'un coup d'oeil ! - Copyright ORBIFLY Décembre 2007 - Disclaimer

ORBIFLY MET'MAP TEAM :

Programmation & Développement : Alexandra Zaïnal
Conception & Développement : Baudouin d'Aumeries
Co-Programmation & Développement : Marc-Olivier Méhu
Soutien technique & logistique : Manuel Goepfert

Contact : metmap@orbifly.com




SOURCES & CREDITS :

   NOAA